OEMA/MED METAR and TAF weather

Enter ICAO airport designator
Station Type Date Time Source
OEMA METAR 2022/01/25 05:00 UTC NOAA

OEMA 250500Z 05011KT CAVOK 14/M09 Q1020 NOSIG


Station Type Date Time Source
OEMA Decoded METAR 2022/01/25 05:00 UTC NOAA

Madinah, Saudi Arabia (OEMA) 24-33N 039-42E 636M
Jan 25, 2022 - 12:00 AM EST / 2022.01.25 0500 UTC
Wind: from the NE (050 degrees) at 13 MPH (11 KT):0
Visibility: greater than 7 mile(s):0
Temperature: 57 F (14 C)
Dew Point: 15 F (-9 C)
Relative Humidity: 19%
Pressure (altimeter): 30.12 in. Hg (1020 hPa)
ob: OEMA 250500Z 05011KT CAVOK 14/M09 Q1020 NOSIG
cycle: 5

Station Type Date Time Source
OEMA TAF 2022/01/24 18:33 UTC NOAA

TAF OEMA 241700Z 2418/2524 13005KT CAVOK
BECMG 2509/2511 26006KT
BECMG 2420/2422 09005KT

Example: see airport list